• Join FlightAware (Why Join?)
  • Login
  • US Flag 
Gobble Gobble! 
11:33PM EST


 

Airport Tracker/Info


-or-


 

Live Flight TrackerFlight Track Log ✈ UAL1007 ✈ 07-Sep-2013 ✈ KIAH - SKBO / BOG

Flight Track Log - Related Links

Times and Time Zones

All times are in EDT time to prevent confusion due to time zone crossing. See the UAL1007 flight status page for this flight to view local times or setup timezone preferences in your user account.

Time Position Orientation Groundspeed Altitude Reporting Facility
EDT Latitude Longitude Course Direction KTS MPH feet Rate Location/Type
04:47PM 29.9557 -95.3375 240° Southwest 173 199 900  Level FlightAware ADS-B
04:47PM 29.9533 -95.3350 138° Southeast 172 198 1,000 2,280 Climbing FlightAware ADS-B
04:48PM 29.9487 -95.3287 130° Southeast 170 196 1,400 1,680 Climbing FlightAware ADS-B
04:48PM 29.9405 -95.3155 126° Southeast 177 204 1,700 1,260 Climbing FlightAware ADS-B
04:48PM 29.9348 -95.3059 124° Southeast 198 228 2,000 1,440 Climbing FlightAware ADS-B
04:48PM 29.9275 -95.2937 125° Southeast 214 246 2,300 1,500 Climbing FlightAware ADS-B
04:49PM 29.9187 -95.2787 124° Southeast 227 261 2,700 1,980 Climbing FlightAware ADS-B
04:49PM 29.9097 -95.2634 124° Southeast 232 267 3,300 2,100 Climbing FlightAware ADS-B
04:49PM 29.9017 -95.2498 124° Southeast 243 280 3,700 1,260 Climbing FlightAware ADS-B
04:49PM 29.8917 -95.2330 124° Southeast 255 293 3,900 360 Climbing FlightAware ADS-B
04:50PM 29.8814 -95.2160 125° Southeast 259 298 3,900  Level FlightAware ADS-B
04:50PM 29.8711 -95.1990 125° Southeast 257 296 3,900  Level FlightAware ADS-B
04:50PM 29.8607 -95.1815 124° Southeast 257 296 3,900  Level FlightAware ADS-B
04:50PM 29.8555 -95.1732 126° Southeast 257 296 3,900  Level FlightAware ADS-B
04:50PM 29.8529 -95.1696 130° Southeast 257 296 3,900  Level FlightAware ADS-B
04:50PM 29.8495 -95.1659 137° Southeast 257 296 3,900  Level FlightAware ADS-B
04:50PM 29.8456 -95.1627 145° Southeast 259 298 3,900  Level FlightAware ADS-B
04:50PM 29.8408 -95.1596 151° Southeast 261 300 3,900  Level FlightAware ADS-B
04:51PM 29.8242 -95.1506 155° Southeast 263 303 3,900 180 Level FlightAware ADS-B
04:51PM 29.8072 -95.1415 155° Southeast 264 304 4,000 420 Climbing FlightAware ADS-B
04:51PM 29.7945 -95.1348 155° Southeast 265 305 4,100 900 Climbing FlightAware ADS-B
04:51PM 29.7842 -95.1292 155° Southeast 267 307 4,300 1,500 Climbing FlightAware ADS-B
04:51PM 29.7811 -95.1273 152° Southeast 268 308 4,400 1,980 Climbing FlightAware ADS-B
04:51PM 29.7778 -95.1249 148° Southeast 267 307 4,500 1,680 Climbing FlightAware ADS-B
04:51PM 29.7748 -95.1222 142° Southeast 267 307 4,600 1,680 Climbing FlightAware ADS-B
04:51PM 29.7720 -95.1191 136° Southeast 267 307 4,700 3,000 Climbing FlightAware ADS-B
04:52PM 29.7697 -95.1159 130° Southeast 266 306 4,900 3,960 Climbing FlightAware ADS-B
04:52PM 29.7674 -95.1124 127° Southeast 264 304 5,100 3,000 Climbing FlightAware ADS-B
04:52PM 29.7570 -95.0949 124° Southeast 262 302 5,800 2,760 Climbing FlightAware ADS-B
04:52PM 29.7465 -95.0771 124° Southeast 263 303 6,500 2,460 Climbing FlightAware ADS-B
04:52PM 29.7356 -95.0584 124° Southeast 270 311 7,100 2,280 Climbing FlightAware ADS-B
04:53PM 29.7250 -95.0402 124° Southeast 273 314 7,700 2,280 Climbing FlightAware ADS-B
04:53PM 29.7142 -95.0215 124° Southeast 276 318 8,300 2,340 Climbing FlightAware ADS-B
04:53PM 29.7052 -95.0060 124° Southeast 280 322 8,800 2,340 Climbing FlightAware ADS-B
04:53PM 29.6941 -94.9870 124° Southeast 282 325 9,400 2,100 Climbing FlightAware ADS-B
04:54PM 29.6828 -94.9676 124° Southeast 290 334 9,900 1,440 Climbing FlightAware ADS-B
04:54PM 29.6588 -94.9273 124° Southeast 319 367 10,500 1,440 Climbing FlightAware ADS-B
04:55PM 29.6320 -94.8827 125° Southeast 336 387 11,400 1,920 Climbing FlightAware ADS-B
04:55PM 29.6046 -94.8376 125° Southeast 343 395 12,500 2,280 Climbing FlightAware ADS-B
04:56PM 29.5770 -94.7917 125° Southeast 348 400 13,700 2,340 Climbing FlightAware ADS-B
04:56PM 29.5489 -94.7449 125° Southeast 353 406 14,900 2,160 Climbing FlightAware ADS-B
04:57PM 29.5207 -94.6974 124° Southeast 360 414 15,900 1,980 Climbing FlightAware ADS-B
04:57PM 29.4922 -94.6491 124° Southeast 368 423 16,900 1,920 Climbing FlightAware ADS-B
04:58PM 29.4632 -94.5998 124° Southeast 371 427 17,900 1,920 Climbing FlightAware ADS-B
04:58PM 29.4335 -94.5498 124° Southeast 377 434 18,900 1,860 Climbing FlightAware ADS-B
04:59PM 29.4035 -94.4991 124° Southeast 384 442 19,800 1,680 Climbing FlightAware ADS-B
04:59PM 29.3732 -94.4479 124° Southeast 392 451 20,600 1,560 Climbing FlightAware ADS-B
05:00PM 29.3421 -94.3956 124° Southeast 396 456 21,400 1,620 Climbing FlightAware ADS-B
05:00PM 29.3110 -94.3417 123° Southeast 399 459 22,300 1,620 Climbing FlightAware ADS-B
05:01PM 29.2797 -94.2874 123° Southeast 404 465 23,100 1,380 Climbing FlightAware ADS-B
05:01PM 29.2447 -94.2273 124° Southeast 410 472 23,800 1,140 Climbing FlightAware ADS-B
05:02PM 29.2097 -94.1679 124° Southeast 418 481 24,400 -2,700 Climbing FlightAware ADS-B
05:03PM 29.2030 -94.1590 131° Southeast 388 447 20,400 900 Descending FlightAware
05:03PM 29.1414 -94.0469 131° Southeast 422 486 25,600 4,080 Climbing Houston Center
05:04PM 29.0619 -93.9075 123° Southeast 437 503 26,900 900 Climbing Houston Center
05:10PM 28.4268 -93.5785 123° Southeast 469 540 31,800 840 Climbing FlightAware ADS-B
05:10PM 28.3644 -93.5502 158° South 474 545 32,100 720 Climbing FlightAware ADS-B
05:11PM 28.2590 -93.5018 158° South 475 547 32,800 900 Climbing FlightAware ADS-B
05:12PM 28.1804 -93.4656 158° South 473 544 33,500 1,080 Climbing FlightAware ADS-B
05:12PM 28.0939 -93.4259 158° South 469 540 34,300 900 Climbing FlightAware ADS-B
05:13PM 28.0212 -93.3927 158° South 464 534 34,700 360 Climbing FlightAware ADS-B
05:14PM 27.8853 -93.3307 158° South 466 536 35,000 60 Climbing FlightAware ADS-B
05:15PM 27.7381 -93.2639 158° South 466 536 35,000 -60 Level Houston Center
05:16PM 27.6181 -93.2086 158° South 464 534 34,900  Descending Houston Center
05:17PM 27.4992 -93.1544 158° South 463 533 35,000  Climbing Houston Center
05:19PM 27.3800 -93.0433 140° Southeast 469 540 34,900 -60 Descending Houston Center
05:20PM 27.2897 -92.9336 133° Southeast 475 547 34,900  Level Houston Center
05:21PM 27.2011 -92.8244 132° Southeast 474 545 35,000  Climbing Houston Center
05:22PM 27.1000 -92.7314 141° Southeast 479 551 35,000  Level Houston Center
05:23PM 26.9856 -92.6589 151° Southeast 476 548 35,000  Level Houston Center
05:24PM 26.8742 -92.5858 150° Southeast 470 541 35,000  Level Houston Center
05:25PM 26.7606 -92.5139 151° Southeast 469 540 35,000 -60 Level Houston Center
05:26PM 26.6208 -92.4267 151° Southeast 472 543 34,900  Descending Houston Center
05:28PM 26.4782 -92.2257 128° Southeast  Level FlightAware Approximate
05:35PM 25.8433 -91.5437 147° Southeast  Level FlightAware Approximate
05:36PM 25.7375 -91.4671 147° Southeast  Level FlightAware Approximate
05:37PM 25.6316 -91.3906 147° Southeast  Level FlightAware Approximate
05:38PM 25.5257 -91.3143 147° Southeast  Level FlightAware Approximate
05:39PM 25.4197 -91.2381 147° Southeast  Level FlightAware Approximate
05:40PM 25.3137 -91.1620 147° Southeast  Level FlightAware Approximate
05:41PM 25.2076 -91.0861 147° Southeast  Level FlightAware Approximate
05:42PM 25.1015 -91.0102 147° Southeast  Level FlightAware Approximate
05:43PM 24.9954 -90.9346 147° Southeast  Level FlightAware Approximate
05:44PM 24.8892 -90.8590 147° Southeast  Level FlightAware Approximate
05:45PM 24.7831 -90.7836 147° Southeast  Level FlightAware Approximate
05:46PM 24.6768 -90.7083 147° Southeast  Level FlightAware Approximate
05:47PM 24.5705 -90.6331 147° Southeast  Level FlightAware Approximate
05:47PM 24.1550 -91.0300 147° Southeast 35,000  Level FlightAware
05:47PM 24.1490 -91.0250 143° Southeast 474 545 35,000  Level FlightAware
05:48PM 24.0920 -90.9740 141° Southeast 474 545 35,000  Level FlightAware
05:48PM 24.0220 -90.9130 141° Southeast 477 549 35,000  Level FlightAware
05:49PM 23.9690 -90.8660 141° Southeast 477 549 35,000  Level FlightAware
05:49PM 23.9170 -90.8210 142° Southeast 477 549 35,000  Level FlightAware
05:50PM 23.8410 -90.7550 142° Southeast 478 550 35,000  Level FlightAware
05:51PM 23.7860 -90.7070 141° Southeast 477 549 35,000  Level FlightAware
05:51PM 23.7030 -90.6340 141° Southeast 476 548 35,000  Level FlightAware
05:52PM 23.6410 -90.5800 141° Southeast 476 548 35,000  Level FlightAware
05:52PM 23.5880 -90.5330 141° Southeast 476 548 35,000  Level FlightAware
05:53PM 23.5460 -90.4970 142° Southeast 476 548 35,000  Level FlightAware
05:53PM 23.4880 -90.4470 142° Southeast 476 548 35,000  Level FlightAware
05:54PM 23.4010 -90.3710 141° Southeast 478 550 35,000  Level FlightAware
05:55PM 23.3330 -90.3130 142° Southeast 478 550 35,000  Level FlightAware
05:56PM 23.2710 -90.2590 141° Southeast 479 551 35,000  Level FlightAware
05:56PM 23.1930 -90.1920 142° Southeast 481 554 35,000  Level FlightAware
05:57PM 23.1320 -90.1390 141° Southeast 483 556 35,000  Level FlightAware
05:57PM 23.0740 -90.0890 142° Southeast 484 557 35,000  Level FlightAware
05:58PM 23.0100 -90.0340 142° Southeast 486 559 35,000  Level FlightAware
05:58PM 22.9520 -89.9840 142° Southeast 486 559 35,000  Level FlightAware
05:59PM 22.8880 -89.9280 141° Southeast 488 562 35,000  Level FlightAware
06:00PM 22.8230 -89.8730 142° Southeast 489 563 35,000  Level FlightAware
06:00PM 22.7630 -89.8210 141° Southeast 490 564 35,000  Level FlightAware
06:01PM 22.7210 -89.7840 141° Southeast 490 564 35,000  Level FlightAware
06:01PM 22.6940 -89.7520 132° Southeast 491 565 35,000  Level FlightAware
06:02PM 22.6380 -89.6710 127° Southeast 491 565 35,000  Level FlightAware
06:02PM 22.5930 -89.6080 128° Southeast 491 565 35,000  Level FlightAware
06:03PM 22.5350 -89.5240 127° Southeast 490 564 35,000  Level FlightAware
06:03PM 22.4930 -89.4650 128° Southeast 490 564 35,000  Level FlightAware
06:04PM 22.4300 -89.3750 127° Southeast 488 562 35,000  Level FlightAware
06:05PM 22.3790 -89.3020 127° Southeast 486 559 35,000  Level FlightAware
06:06PM 22.3240 -89.2220 127° Southeast 484 557 35,000  Level FlightAware
06:06PM 22.2550 -89.1240 127° Southeast 481 554 35,000  Level FlightAware
06:07PM 22.2120 -89.0620 127° Southeast 478 550 35,000  Level FlightAware
06:07PM 22.1650 -88.9950 127° Southeast 476 548 35,000  Level FlightAware
06:08PM 22.1220 -88.9230 123° Southeast 474 545 35,000  Level FlightAware
06:09PM 22.0810 -88.8500 121° Southeast 474 545 35,000  Level FlightAware
06:09PM 22.0390 -88.7770 122° Southeast 474 545 35,000  Level FlightAware
06:10PM 22.0030 -88.7120 121° Southeast 475 547 35,000  Level FlightAware
06:10PM 21.9630 -88.6410 121° Southeast 475 547 35,000  Level FlightAware
06:11PM 21.9200 -88.5640 121° Southeast 474 545 35,000  Level FlightAware
06:11PM 21.8920 -88.5140 121° Southeast 474 545 35,000  Level FlightAware
06:12PM 21.8410 -88.4240 121° Southeast 474 545 35,000  Level FlightAware
06:13PM 21.8040 -88.3610 122° Southeast 474 545 35,000  Level FlightAware
06:13PM 21.7640 -88.2870 120° Southeast 475 547 35,000  Level FlightAware
06:14PM 21.7320 -88.2190 117° Southeast 476 548 35,000  Level FlightAware
06:14PM 21.6940 -88.1370 116° Southeast 478 550 35,000  Level FlightAware
06:15PM 21.6630 -88.0610 114° Southeast 477 549 35,000  Level FlightAware
06:15PM 21.6380 -87.9960 112° Southeast 478 550 35,000  Level FlightAware
06:16PM 21.6050 -87.9080 112° Southeast 476 548 35,000  Level FlightAware
06:17PM 21.5760 -87.8320 112° Southeast 475 547 35,000  Level FlightAware
06:17PM 21.5460 -87.7510 112° Southeast 474 545 35,000  Level FlightAware
06:18PM 21.5240 -87.6740 107° East 472 543 35,000  Level FlightAware
06:18PM 21.5050 -87.5980 105° East 473 544 35,000  Level FlightAware
06:19PM 21.4800 -87.5020 106° East 471 542 35,000  Level FlightAware
06:20PM 21.4610 -87.4280 105° East 469 540 35,000  Level FlightAware
06:20PM 21.4400 -87.3470 106° East 470 541 35,000  Level FlightAware
06:21PM 21.4160 -87.2660 108° East 471 542 35,000  Level FlightAware
06:22PM 21.3910 -87.1850 108° East 474 545 35,000  Level FlightAware
06:22PM 21.3690 -87.1160 109° East 473 544 35,000  Level FlightAware
06:23PM 21.3430 -87.0340 109° East 473 544 35,000  Level FlightAware
06:23PM 21.3110 -86.9570 114° Southeast 474 545 35,000  Level FlightAware
06:24PM 21.2580 -86.8980 134° Southeast 473 544 35,000  Level FlightAware
06:24PM 21.1980 -86.8500 143° Southeast 472 543 35,000  Level FlightAware
06:25PM 21.1320 -86.8170 155° Southeast 469 540 35,000  Level FlightAware
06:26PM 21.0500 -86.7930 165° South 469 540 35,000  Level FlightAware
06:26PM 20.9850 -86.7730 164° South 471 542 35,000  Level FlightAware
06:27PM 20.9070 -86.7500 165° South 474 545 35,000  Level FlightAware
06:27PM 20.8320 -86.7270 164° South 475 547 35,000  Level FlightAware
06:28PM 20.7660 -86.7070 164° South 475 547 35,000  Level FlightAware
06:28PM 20.6890 -86.6840 164° South 473 544 35,000  Level FlightAware
06:29PM 20.6150 -86.6620 164° South 466 536 35,000  Level FlightAware
06:30PM 20.5420 -86.6410 165° South 456 525 35,000  Level FlightAware
06:30PM 20.4740 -86.6200 164° South 454 522 35,000  Level FlightAware
06:31PM 20.4000 -86.5980 164° South 453 521 35,000  Level FlightAware
06:31PM 20.3260 -86.5760 164° South 455 524 35,000  Level FlightAware
06:32PM 20.2580 -86.5560 165° South 460 529 35,000  Level FlightAware
06:33PM 20.1820 -86.5330 164° South 465 535 35,000  Level FlightAware
06:33PM 20.1110 -86.5120 164° South 465 535 35,000  Level FlightAware
06:34PM 20.0380 -86.4910 165° South 467 537 35,000  Level FlightAware
06:34PM 19.9650 -86.4690 164° South 466 536 35,000  Level FlightAware
06:35PM 19.8870 -86.4460 165° South 462 532 35,000  Level FlightAware
06:35PM 19.8210 -86.4270 165° South 463 533 35,000  Level FlightAware
06:36PM 19.7510 -86.4060 164° South 463 533 35,000  Level FlightAware
06:37PM 19.6730 -86.3830 164° South 462 532 35,000  Level FlightAware
06:37PM 19.6000 -86.3550 160° South 463 533 35,000  Level FlightAware
06:38PM 19.5390 -86.3190 151° Southeast 463 533 35,000  Level FlightAware
06:38PM 19.4730 -86.2790 150° Southeast 461 531 35,000  Level FlightAware
06:39PM 19.4050 -86.2380 150° Southeast 461 531 35,000  Level FlightAware
06:40PM 19.3400 -86.1980 150° Southeast 461 531 35,000  Level FlightAware
06:40PM 19.2810 -86.1620 150° Southeast 460 529 35,000  Level FlightAware
06:41PM 19.2100 -86.1190 150° Southeast 461 531 35,000  Level FlightAware
06:41PM 19.1420 -86.0780 150° Southeast 461 531 35,000  Level FlightAware
06:42PM 19.0840 -86.0430 150° Southeast 462 532 35,000  Level FlightAware
06:42PM 19.0210 -86.0050 150° Southeast 462 532 35,000  Level FlightAware
06:43PM 18.9540 -85.9640 150° Southeast 462 532 35,000  Level FlightAware
06:44PM 18.8860 -85.9230 150° Southeast 461 531 35,000  Level FlightAware
06:44PM 18.8260 -85.8870 150° Southeast 461 531 35,000  Level FlightAware
06:45PM 18.7700 -85.8520 149° Southeast 461 531 35,000  Level FlightAware
06:46PM 18.7130 -85.8180 151° Southeast 461 531 35,000  Level FlightAware
06:46PM 18.6600 -85.7850 149° Southeast 461 531 35,000  Level FlightAware
06:47PM 18.6030 -85.7510 151° Southeast 461 531 35,000  Level FlightAware
06:47PM 18.5500 -85.7180 149° Southeast 461 531 35,000  Level FlightAware
06:48PM 18.4930 -85.6840 151° Southeast 461 531 35,000  Level FlightAware
06:48PM 18.4370 -85.6490 149° Southeast 461 531 35,000  Level FlightAware
06:49PM 18.3800 -85.6150 150° Southeast 461 531 35,000  Level FlightAware
06:50PM 18.3240 -85.5810 150° Southeast 461 531 35,000  Level FlightAware
06:50PM 18.2660 -85.5450 149° Southeast 461 531 35,000  Level FlightAware
06:51PM 18.2090 -85.5110 150° Southeast 461 531 35,000  Level FlightAware
06:51PM 18.1530 -85.4770 150° Southeast 461 531 35,000  Level FlightAware
06:52PM 18.0960 -85.4420 150° Southeast 461 531 35,000  Level FlightAware
06:53PM 18.0400 -85.4080 150° Southeast 461 531 35,000  Level FlightAware
06:53PM 17.9830 -85.3740 150° Southeast 461 531 35,000  Level FlightAware
06:56PM 17.7923 -85.1555 132° Southeast  Level FlightAware Approximate
06:57PM 17.6965 -85.0689 147° Southeast  Level Estimated
06:58PM 17.5907 -84.9965 147° Southeast  Level FlightAware Approximate
06:59PM 17.4848 -84.9243 147° Southeast  Level FlightAware Approximate
07:00PM 17.3788 -84.8521 147° Southeast  Level FlightAware Approximate
07:01PM 17.2729 -84.7800 147° Southeast  Level FlightAware Approximate
07:02PM 17.1669 -84.7080 147° Southeast  Level FlightAware Approximate
07:03PM 17.0609 -84.6361 147° Southeast  Level FlightAware Approximate
07:04PM 16.9548 -84.5642 147° Southeast  Level FlightAware Approximate
07:05PM 16.8487 -84.4924 147° Southeast  Level FlightAware Approximate
07:06PM 16.7427 -84.4208 147° Southeast  Level FlightAware Approximate
07:07PM 16.6366 -84.3491 147° Southeast  Level FlightAware Approximate
07:08PM 16.5304 -84.2776 147° Southeast  Level FlightAware Approximate
07:09PM 16.4242 -84.2062 147° Southeast  Level FlightAware Approximate
07:10PM 16.3181 -84.1348 147° Southeast  Level FlightAware Approximate
07:11PM 16.2118 -84.0635 147° Southeast  Level FlightAware Approximate
07:12PM 16.1056 -83.9923 147° Southeast  Level FlightAware Approximate
07:13PM 15.9994 -83.9211 147° Southeast  Level FlightAware Approximate
07:14PM 15.8931 -83.8501 147° Southeast  Level FlightAware Approximate
07:15PM 15.7868 -83.7791 147° Southeast  Level FlightAware Approximate
07:16PM 15.6805 -83.7082 147° Southeast  Level FlightAware Approximate
07:17PM 15.5741 -83.6373 147° Southeast  Level FlightAware Approximate
07:18PM 15.4677 -83.5666 147° Southeast  Level FlightAware Approximate
07:19PM 15.3613 -83.4959 147° Southeast  Level FlightAware Approximate
07:20PM 15.2549 -83.4252 147° Southeast  Level FlightAware Approximate
07:21PM 15.1485 -83.3547 147° Southeast  Level FlightAware Approximate
07:22PM 15.0420 -83.2842 147° Southeast  Level FlightAware Approximate
07:23PM 14.9355 -83.2138 147° Southeast  Level FlightAware Approximate
07:24PM 14.8290 -83.1435 147° Southeast  Level FlightAware Approximate
07:25PM 14.7225 -83.0732 147° Southeast  Level FlightAware Approximate
07:26PM 14.6160 -83.0030 147° Southeast  Level FlightAware Approximate
07:27PM 14.5094 -82.9329 147° Southeast  Level FlightAware Approximate
07:28PM 14.4028 -82.8628 148° Southeast  Level FlightAware Approximate
07:29PM 14.2962 -82.7928 148° Southeast  Level FlightAware Approximate
07:30PM 14.1896 -82.7228 148° Southeast  Level FlightAware Approximate
07:31PM 14.0829 -82.6530 148° Southeast  Level FlightAware Approximate
07:32PM 13.9762 -82.5832 148° Southeast  Level FlightAware Approximate
07:33PM 13.8833 -82.4949 148° Southeast  Level Estimated
07:34PM 13.7749 -82.4282 149° Southeast  Level FlightAware Approximate
07:35PM 13.6664 -82.3616 149° Southeast  Level FlightAware Approximate
07:36PM 13.5579 -82.2950 149° Southeast  Level FlightAware Approximate
07:37PM 13.4493 -82.2284 149° Southeast  Level FlightAware Approximate
07:38PM 13.3408 -82.1619 149° Southeast  Level FlightAware Approximate
07:39PM 13.2322 -82.0955 149° Southeast  Level FlightAware Approximate
07:40PM 13.1236 -82.0292 149° Southeast  Level FlightAware Approximate
07:41PM 13.0150 -81.9629 149° Southeast  Level FlightAware Approximate
07:42PM 12.9064 -81.8966 149° Southeast  Level FlightAware Approximate
07:43PM 12.7978 -81.8305 149° Southeast  Level FlightAware Approximate
07:44PM 12.6891 -81.7643 149° Southeast  Level FlightAware Approximate
07:45PM 12.5982 -81.6745 140° Southeast  Level Estimated
07:46PM 12.5010 -81.5917 140° Southeast  Level FlightAware Approximate
07:47PM 12.4039 -81.5089 140° Southeast  Level FlightAware Approximate
07:48PM 12.3067 -81.4262 140° Southeast  Level FlightAware Approximate
07:49PM 12.2095 -81.3436 140° Southeast  Level FlightAware Approximate
07:50PM 12.1123 -81.2610 140° Southeast  Level FlightAware Approximate
07:51PM 12.0151 -81.1786 140° Southeast  Level FlightAware Approximate
07:52PM 11.9178 -81.0961 140° Southeast  Level FlightAware Approximate
07:53PM 11.8205 -81.0137 140° Southeast  Level FlightAware Approximate
07:54PM 11.7232 -80.9314 140° Southeast  Level FlightAware Approximate
07:55PM 11.6259 -80.8491 140° Southeast  Level FlightAware Approximate
07:56PM 11.5285 -80.7669 140° Southeast  Level FlightAware Approximate
07:57PM 11.4311 -80.6848 140° Southeast  Level FlightAware Approximate
07:58PM 11.3337 -80.6027 140° Southeast  Level FlightAware Approximate
07:58PM 11.1780 -80.4900 140° Southeast 443 510 37,000  Level FlightAware
07:59PM 11.2363 -80.5207 140° Southeast  Level FlightAware Approximate
07:59PM 11.1290 -80.4480 140° Southeast 442 509 37,000  Level FlightAware
07:59PM 11.0750 -80.4010 139° Southeast 443 510 37,000  Level FlightAware
08:00PM 11.0180 -80.3520 140° Southeast 445 512 37,000  Level FlightAware
08:02PM 10.8446 -80.2021 140° Southeast  Level FlightAware Approximate
08:03PM 10.7482 -80.1189 140° Southeast  Level FlightAware Approximate
08:04PM 10.6518 -80.0358 140° Southeast  Level FlightAware Approximate
08:05PM 10.5554 -79.9527 140° Southeast  Level FlightAware Approximate
08:06PM 10.4590 -79.8697 140° Southeast  Level FlightAware Approximate
08:07PM 10.3622 -79.7871 140° Southeast  Level FlightAware Approximate
08:08PM 10.2653 -79.7047 140° Southeast  Level FlightAware Approximate
08:09PM 10.1683 -79.6224 140° Southeast  Level FlightAware Approximate
08:10PM 10.0712 -79.5402 140° Southeast  Level FlightAware Approximate
08:11PM 9.9742 -79.4580 140° Southeast  Level FlightAware Approximate
08:12PM 9.8772 -79.3759 140° Southeast  Level FlightAware Approximate
08:13PM 9.7801 -79.2938 140° Southeast  Level FlightAware Approximate
08:14PM 9.6830 -79.2117 140° Southeast  Level FlightAware Approximate
08:15PM 9.5859 -79.1298 140° Southeast  Level FlightAware Approximate
08:16PM 9.4888 -79.0478 140° Southeast  Level FlightAware Approximate
08:17PM 9.3916 -78.9659 140° Southeast  Level FlightAware Approximate
08:18PM 9.2944 -78.8841 140° Southeast  Level FlightAware Approximate
08:19PM 9.1973 -78.8023 140° Southeast  Level FlightAware Approximate
08:20PM 9.1001 -78.7205 140° Southeast  Level FlightAware Approximate
08:20PM 9.0710 -78.6980 140° Southeast 444 511 37,000  Level FlightAware
08:21PM 9.0028 -78.6388 140° Southeast  Level FlightAware Approximate
08:21PM 8.9980 -78.6360 140° Southeast 442 509 37,000  Level FlightAware
08:22PM 8.9440 -78.5910 141° Southeast 442 509 37,000  Level FlightAware
08:22PM 8.8740 -78.5310 140° Southeast 441 507 37,000  Level FlightAware
08:23PM 8.8110 -78.4790 141° Southeast 443 510 37,000  Level FlightAware
08:23PM 8.7560 -78.4320 140° Southeast 442 509 37,000  Level FlightAware
08:24PM 8.6960 -78.3820 141° Southeast 442 509 37,000  Level FlightAware
08:25PM 8.6390 -78.3340 140° Southeast 442 509 37,000  Level FlightAware
08:26PM 8.5500 -78.2590 140° Southeast 442 509 37,000  Level FlightAware
08:26PM 8.4930 -78.2110 140° Southeast 442 509 37,000  Level FlightAware
08:27PM 8.4260 -78.1550 140° Southeast 442 509 37,000  Level FlightAware
08:28PM 8.3730 -78.1020 135° Southeast 438 504 37,000  Level FlightAware
08:28PM 8.3250 -78.0480 132° Southeast 439 505 37,000  Level FlightAware
08:29PM 8.2840 -78.0020 132° Southeast 439 505 37,000  Level FlightAware
08:29PM 8.2290 -77.9410 132° Southeast 439 505 37,000  Level FlightAware
08:30PM 8.1810 -77.8880 132° Southeast 438 504 37,000  Level FlightAware
08:30PM 8.1410 -77.8430 132° Southeast 437 503 37,000  Level FlightAware
08:31PM 8.0870 -77.7830 132° Southeast 435 501 37,000  Level FlightAware
08:32PM 8.0390 -77.7290 132° Southeast 433 498 37,000  Level FlightAware
08:32PM 7.9990 -77.6850 133° Southeast 432 497 37,000  Level FlightAware
08:33PM 7.9470 -77.6270 132° Southeast 431 496 37,000  Level FlightAware
08:33PM 7.8970 -77.5720 133° Southeast 430 495 37,000  Level FlightAware
08:34PM 7.8570 -77.5270 132° Southeast 428 493 37,000  Level FlightAware
08:34PM 7.8100 -77.4750 132° Southeast 428 493 37,000  Level FlightAware
08:35PM 7.7640 -77.4240 132° Southeast 428 493 37,000  Level FlightAware
08:36PM 7.7120 -77.3660 132° Southeast 427 491 37,000  Level FlightAware
08:36PM 7.6720 -77.3200 131° Southeast 427 491 37,000  Level FlightAware
08:37PM 7.6260 -77.2690 132° Southeast 427 491 37,000  Level FlightAware
08:37PM 7.5840 -77.2200 131° Southeast 427 491 37,000  Level FlightAware
08:38PM 7.5330 -77.1630 132° Southeast 428 493 37,000  Level FlightAware
08:39PM 7.4880 -77.1120 132° Southeast 429 494 37,000  Level FlightAware
08:39PM 7.4410 -77.0600 132° Southeast 431 496 37,000  Level FlightAware
08:40PM 7.3950 -77.0070 131° Southeast 431 496 37,000  Level FlightAware
08:40PM 7.3410 -76.9470 132° Southeast 433 498 37,000  Level FlightAware
08:41PM 7.3020 -76.9020 131° Southeast 433 498 37,000  Level FlightAware
08:41PM 7.2550 -76.8490 132° Southeast 435 501 37,000  Level FlightAware
08:42PM 7.2070 -76.7960 132° Southeast 436 502 37,000  Level FlightAware
08:43PM 7.1610 -76.7430 131° Southeast 436 502 37,000  Level FlightAware
08:43PM 7.1140 -76.6900 132° Southeast 436 502 37,000  Level FlightAware
08:44PM 7.0660 -76.6360 132° Southeast 434 499 37,000  Level FlightAware
08:44PM 7.0190 -76.5830 132° Southeast 434 499 37,000  Level FlightAware
08:45PM 6.9730 -76.5310 132° Southeast 434 499 37,000  Level FlightAware
08:46PM 6.9250 -76.4780 132° Southeast 434 499 37,000  Level FlightAware
08:46PM 6.8790 -76.4250 131° Southeast 433 498 37,000  Level FlightAware
08:47PM 6.8320 -76.3730 132° Southeast 430 495 37,000  Level FlightAware
08:47PM 6.7860 -76.3220 132° Southeast 427 491 37,000  Level FlightAware
08:48PM 6.7400 -76.2700 132° Southeast 426 490 37,000  Level FlightAware
08:49PM 6.6910 -76.2150 132° Southeast 424 488 37,000  Level FlightAware
08:49PM 6.6450 -76.1630 132° Southeast 422 486 37,000  Level FlightAware
08:50PM 6.6000 -76.1120 132° Southeast 422 486 37,000  Level FlightAware
08:50PM 6.5530 -76.0600 132° Southeast 422 486 37,000  Level FlightAware
08:51PM 6.5130 -76.0150 132° Southeast 422 486 37,000  Level FlightAware
08:51PM 6.4610 -75.9560 132° Southeast 422 486 37,000  Level FlightAware
08:52PM 6.4160 -75.9060 132° Southeast 422 486 37,000  Level FlightAware
08:53PM 6.3690 -75.8540 132° Southeast 422 486 37,000  Level FlightAware
08:53PM 6.3310 -75.8100 131° Southeast 423 487 37,000  Level FlightAware
08:54PM 6.2840 -75.7620 135° Southeast 426 490 37,000  Level FlightAware
08:54PM 6.2190 -75.7110 142° Southeast 431 496 37,000  Level FlightAware
08:55PM 6.1720 -75.6750 143° Southeast 433 498 37,000  Level FlightAware
08:55PM 6.1160 -75.6310 142° Southeast 431 496 37,000  Level FlightAware
08:56PM 6.0540 -75.5820 142° Southeast 430 495 37,000  Level FlightAware
08:57PM 6.0060 -75.5450 143° Southeast 431 496 37,000 -480 Level FlightAware
08:57PM 5.9440 -75.4970 142° Southeast 430 495 36,500 -900 Descending FlightAware
08:58PM 5.8890 -75.4540 142° Southeast 432 497 35,900 -960 Descending FlightAware
08:58PM 5.8400 -75.4160 142° Southeast 433 498 35,500 -1,440 Descending FlightAware
08:59PM 5.7890 -75.3770 143° Southeast 436 502 34,400 -1,020 Descending FlightAware
09:00PM 5.7250 -75.3260 142° Southeast 436 502 34,200 -180 Descending FlightAware
09:00PM 5.6760 -75.2880 142° Southeast 436 502 34,200  Level FlightAware
09:01PM 5.6280 -75.2500 142° Southeast 436 502 34,200  Level FlightAware
09:02PM 5.5790 -75.2110 142° Southeast 436 502 34,200 -6,120 Level FlightAware
09:02PM 5.4880 -75.1420 143° Southeast 431 496 27,100 -7,380 Descending FlightAware
09:03PM 5.4340 -75.1010 143° Southeast 426 490 25,900 -2,280 Descending FlightAware
09:03PM 5.3750 -75.0550 142° Southeast 421 484 24,500 -2,280 Descending FlightAware
09:04PM 5.3210 -75.0130 142° Southeast 416 479 23,200 -1,980 Descending FlightAware
09:04PM 5.2720 -74.9750 142° Southeast 405 466 22,300 -1,080 Descending FlightAware
09:05PM 5.2250 -74.9310 137° Southeast 375 432 22,000 -360 Descending FlightAware
09:05PM 5.2150 -74.9060 112° Southeast 356 410 22,000 -960 Level FlightAware
09:06PM 5.2180 -74.8530 87° East 342 394 21,200 -1,500 Descending FlightAware
09:06PM 5.2270 -74.8000 80° East 339 390 20,300 -1,500 Descending FlightAware
09:07PM 5.2350 -74.7480 81° East 337 388 19,500 -1,440 Descending FlightAware
09:08PM 5.2440 -74.6940 80° East 330 380 18,700 -660 Descending FlightAware
09:08PM 5.2510 -74.6450 82° East 330 380 18,700  Level FlightAware
09:09PM 5.2590 -74.5990 80° East 330 380 18,700  Level FlightAware
09:09PM 5.2660 -74.5530 81° East 330 380 18,700  Level FlightAware
09:10PM 5.2730 -74.5060 81° East 330 380 18,700 -2,700 Level FlightAware
09:11PM 5.1040 -74.5010 178° South 311 358 15,600 -2,760 Descending FlightAware
09:11PM 5.0640 -74.4730 145° Southeast 294 338 15,600 -600 Level FlightAware
09:12PM 5.0300 -74.4500 146° Southeast 288 331 15,000 -1,260 Descending FlightAware
09:12PM 4.9900 -74.4220 145° Southeast 282 325 14,200 -1,140 Descending FlightAware
09:13PM 4.9490 -74.3940 146° Southeast 269 310 13,600 -780 Descending FlightAware
09:13PM 4.9180 -74.3730 146° Southeast 246 283 13,300 -1,020 Descending FlightAware
09:14PM 4.8850 -74.3490 144° Southeast 236 272 12,500 -1,260 Descending FlightAware
09:15PM 4.8570 -74.3300 146° Southeast 224 258 11,900 -1,080 Descending FlightAware
09:15PM 4.8290 -74.3080 142° Southeast 209 241 11,300 -960 Descending FlightAware
09:16PM 4.8050 -74.2870 139° Southeast 201 231 10,800 -1,020 Descending FlightAware
09:16PM 4.7830 -74.2650 135° Southeast 195 224 10,200 -720 Descending FlightAware
09:17PM 4.7620 -74.2370 127° Southeast 188 216 9,900 -300 Descending FlightAware
09:17PM 4.7520 -74.2220 124° Southeast 188 216 9,900  Level FlightAware
09:18PM 4.7420 -74.2080 126° Southeast 188 216 9,900 -1,800 Level FlightAware
09:18PM 4.7250 -74.1880 130° Southeast 166 191 8,400 -1,500 Descending FlightAware
09:19PM 4.7100 -74.1680 127° Southeast 167 192 8,300 -120 Descending FlightAware
09:19PM 4.7000 -74.1550 128° Southeast 167 192 8,300  Level FlightAware
09:19PM 4.6960 -74.1490 124° Southeast 167 192 8,300  Level FlightAware
09:20PM 4.6860 -74.1360 128° Southeast 167 192 8,300  Level FlightAware
09:20PM 4.6810 -74.1300 130° Southeast 167 192 8,300  Level FlightAware